You are listening to:
KDCA Tower/Heli - Washington, District of Columbia, United States

KDCA 191052Z 03006KT 7SM BKN037 BKN070 18/16 A3000 RMK AO2 SLP156 T01780156

If stream doesn't start automatically press the play button
If stream stops then reload player then press play